Yount, Missouri
Current Conditions -  °F | °C
As of 11:35 AM on Wednesday 26 Nov 2014 (Local Time) from KFAM Reporting Station
Broken Clouds Broken Clouds  
Wind Chill: 27°   Ceiling: 3500
Heat Index: 36°   Visibility: 4mi
Dew Point: 28°   Wind: 14mph
Humidity: 75%   Direction: 130°SE
Pressure: 29.98"   Gusts: NA
Location:  37.7127°N, 89.8903°W
Report Text: KFAM 261735Z AUTO 13012KT 4SM FEW019 SCT029 BKN035 02/M02 A2998 RMK AO1
Loading
Personal Weather Stations






























Interactive Weather Map New forecast layout! Learn more

10-Day Weather Forecast

Advertisements
Track Severe Weather on mobile